Time;durP1;ratioP1;P1;durP2;ratioP2;P2;SDS_P1;SDS_P2;PMS_P1;PMS_P2;Temp;Humidity;BMP_temperature;BMP_pressure;BME280_temperature;BME280_humidity;BME280_pressure;Samples;Min_cycle;Max_cycle;Signal;HPM_P1;HPM_P2
2022/07/11 00:00:49;;;;;;;14.77;3.83;;;;;;;16.62;82.02;102445.56;10506320;28;20064;-67
2022/07/11 00:05:50;;;;;;;2.80;2.50;;;;;;;16.79;82.23;102432.47;10506008;28;20037;-67
2022/07/11 00:10:51;;;;;;;14.25;3.47;;;;;;;16.94;82.19;102433.16;10486406;28;20052;-68
2022/07/11 00:15:51;;;;;;;9.05;3.42;;;;;;;17.08;82.11;102443.13;10504813;28;20101;-69
2022/07/11 00:20:51;;;;;;;3.42;2.67;;;;;;;17.15;82.32;102418.53;10505498;28;20044;-68
2022/07/11 00:25:52;;;;;;;1.98;1.88;;;;;;;17.28;82.33;102423.22;10486755;28;20036;-68
2022/07/11 00:30:52;;;;;;;8.57;3.45;;;;;;;17.33;82.22;102423.44;10504816;28;20115;-67
2022/07/11 00:35:53;;;;;;;12.65;2.42;;;;;;;17.37;82.17;102416.50;10487883;28;20035;-68
2022/07/11 00:40:53;;;;;;;4.63;2.40;;;;;;;17.42;82.04;102419.44;10504405;28;20120;-68
2022/07/11 00:45:53;;;;;;;3.65;2.00;;;;;;;17.45;82.98;102424.53;10505147;28;20040;-68
2022/07/11 00:50:54;;;;;;;2.38;1.88;;;;;;;17.52;82.97;102419.09;10488364;28;20047;-67
2022/07/11 00:55:55;;;;;;;3.63;2.72;;;;;;;17.58;82.43;102423.72;10486172;28;20043;-68
2022/07/11 01:00:56;;;;;;;3.90;2.30;;;;;;;17.59;83.01;102430.91;10501942;28;20064;-68
2022/07/11 01:05:57;;;;;;;7.00;2.33;;;;;;;17.65;83.02;102430.06;10501428;28;20036;-68
2022/07/11 01:11:02;;;;;;;3.22;2.50;;;;;;;17.63;83.02;102432.16;10503269;28;20106;-68
2022/07/11 01:16:09;;;;;;;6.65;2.05;;;;;;;17.70;83.25;102433.00;10484629;28;20531;-68
2022/07/11 01:21:21;;;;;;;4.88;2.20;;;;;;;17.72;83.23;102430.94;10502993;28;20053;-68
2022/07/11 01:26:22;;;;;;;2.33;1.80;;;;;;;17.72;83.44;102419.97;10500627;28;20472;-68
2022/07/11 01:49:13;;;;;;;6.05;2.20;;;;;;;17.94;83.21;102412.44;10701828;22;20045;-74
2022/07/11 01:54:14;;;;;;;4.20;2.38;;;;;;;17.97;83.13;102412.03;10441411;28;20045;-76
2022/07/11 01:59:14;;;;;;;7.32;2.25;;;;;;;18.01;83.25;102412.44;10460948;28;20044;-76
2022/07/11 02:04:14;;;;;;;2.17;1.67;;;;;;;18.01;83.47;102409.69;10442885;28;20082;-76
2022/07/11 02:09:15;;;;;;;5.70;2.50;;;;;;;18.00;83.64;102405.28;10459415;28;20469;-76
2022/07/11 02:14:15;;;;;;;5.43;2.50;;;;;;;17.98;84.17;102404.63;10442863;28;20043;-75
2022/07/11 02:19:15;;;;;;;3.67;1.55;;;;;;;17.99;83.77;102404.41;10441772;28;20108;-75
2022/07/11 02:24:16;;;;;;;5.18;1.98;;;;;;;18.01;83.16;102396.84;10458359;28;20044;-75
2022/07/11 02:29:22;;;;;;;10.52;3.13;;;;;;;18.00;83.57;102406.13;10440590;28;20473;-76
2022/07/11 02:34:22;;;;;;;9.43;2.25;;;;;;;18.00;83.58;102405.28;10457952;28;20035;-75
2022/07/11 02:39:22;;;;;;;1.45;1.35;;;;;;;18.03;83.35;102410.34;10458889;28;20449;-76
2022/07/11 02:44:23;;;;;;;1.27;1.15;;;;;;;17.99;83.96;102404.41;10458123;28;20041;-76
2022/07/11 02:49:23;;;;;;;3.67;1.95;;;;;;;18.07;83.27;102411.59;10418073;28;20045;-75
2022/07/11 02:54:23;;;;;;;4.25;1.63;;;;;;;18.08;83.54;102414.13;10416482;28;20449;-75
2022/07/11 02:59:24;;;;;;;2.22;1.98;;;;;;;18.06;83.20;102401.66;10415870;28;20041;-75
2022/07/11 03:04:24;;;;;;;2.40;1.67;;;;;;;18.02;84.28;102398.50;10416443;28;20042;-76
2022/07/11 03:09:25;;;;;;;4.43;2.08;;;;;;;18.00;84.14;102408.03;10418886;28;20038;-76
2022/07/11 03:14:26;;;;;;;5.80;2.47;;;;;;;17.98;84.88;102402.72;10418553;28;20159;-76
2022/07/11 03:19:27;;;;;;;3.92;1.73;;;;;;;17.96;84.49;102402.09;10417338;28;20470;-75
2022/07/11 03:24:27;;;;;;;2.03;1.48;;;;;;;17.98;84.10;102410.97;10398183;28;20045;-76
2022/07/11 03:29:28;;;;;;;3.20;1.73;;;;;;;17.97;85.48;102414.75;10415660;28;20114;-76
2022/07/11 03:34:28;;;;;;;0.82;0.82;;;;;;;17.97;84.88;102411.19;10416092;28;20438;-76
2022/07/11 03:39:29;;;;;;;2.75;1.50;;;;;;;17.97;84.68;102402.97;10414391;28;20104;-76
2022/07/11 03:44:29;;;;;;;5.68;1.38;;;;;;;17.94;84.89;102425.31;10415463;28;20112;-76
2022/07/11 03:49:29;;;;;;;2.40;1.08;;;;;;;17.91;84.46;102414.75;10416525;28;20061;-76
2022/07/11 03:54:30;;;;;;;1.35;1.27;;;;;;;17.89;84.74;102420.44;10416159;28;20038;-76
2022/07/11 03:59:30;;;;;;;1.42;1.33;;;;;;;17.85;85.33;102422.75;10415171;28;20083;-76
2022/07/11 04:04:31;;;;;;;4.03;1.45;;;;;;;17.81;84.92;102417.91;10416191;28;20373;-76
2022/07/11 04:09:31;;;;;;;0.80;0.73;;;;;;;17.75;86.48;102419.56;10415539;28;20042;-76
2022/07/11 04:14:31;;;;;;;3.63;1.20;;;;;;;17.68;90.74;102424.19;10414812;28;20384;-76
2022/07/11 04:19:32;;;;;;;3.20;1.77;;;;;;;17.69;88.29;102433.25;10382371;28;20030;-76
2022/07/11 04:24:32;;;;;;;1.30;1.20;;;;;;;17.65;89.89;102417.22;10414707;28;20088;-76
2022/07/11 04:29:33;;;;;;;1.13;1.13;;;;;;;17.59;94.39;102419.94;10413868;28;20033;-76
2022/07/11 04:34:33;;;;;;;1.55;1.48;;;;;;;17.60;90.75;102425.19;10414187;28;20045;-66
2022/07/11 04:39:35;;;;;;;1.65;1.55;;;;;;;17.65;88.74;102424.59;10417710;28;20465;-65
2022/07/11 04:44:35;;;;;;;1.13;1.02;;;;;;;17.68;89.86;102424.19;10403039;28;20046;-66
2022/07/11 04:49:36;;;;;;;1.45;1.15;;;;;;;17.67;89.05;102423.31;10421845;28;20064;-66
2022/07/11 04:54:36;;;;;;;1.27;1.25;;;;;;;17.71;88.97;102417.41;10419647;28;20537;-65
2022/07/11 04:59:38;;;;;;;1.50;1.40;;;;;;;17.79;88.11;102423.59;10421291;28;20037;-66
2022/07/11 05:04:39;;;;;;;1.85;1.55;;;;;;;17.85;88.07;102425.50;10403657;28;20377;-69
2022/07/11 05:09:39;;;;;;;2.25;1.52;;;;;;;18.00;87.70;102427.22;10420518;28;20040;-70
2022/07/11 05:14:40;;;;;;;2.50;1.23;;;;;;;18.12;87.74;102428.25;10420059;28;20037;-75
2022/07/11 05:19:41;;;;;;;5.07;1.65;;;;;;;18.28;87.40;102436.06;10421077;28;20045;-74
2022/07/11 05:24:41;;;;;;;1.40;1.30;;;;;;;18.36;88.33;102446.81;10419812;28;20069;-74
2022/07/11 05:29:42;;;;;;;1.15;0.93;;;;;;;18.29;88.00;102450.63;10419884;28;20037;-74
2022/07/11 05:34:42;;;;;;;1.48;1.38;;;;;;;18.22;87.88;102458.84;10421377;28;20037;-76
2022/07/11 05:39:42;;;;;;;2.53;1.67;;;;;;;18.26;87.39;102448.31;10404258;28;20037;-74
2022/07/11 05:44:43;;;;;;;1.15;1.15;;;;;;;18.19;88.78;102453.78;10421224;28;20038;-74
2022/07/11 05:49:43;;;;;;;1.25;1.17;;;;;;;17.99;92.10;102459.22;10416580;28;20088;-74
2022/07/11 05:54:44;;;;;;;1.42;1.33;;;;;;;18.03;90.32;102470.66;10419571;28;20037;-74
2022/07/11 05:59:45;;;;;;;1.65;1.55;;;;;;;18.08;89.48;102452.50;10401999;28;20449;-74
2022/07/11 06:04:46;;;;;;;2.22;2.03;;;;;;;18.19;89.18;102463.88;10418282;28;20041;-74
2022/07/11 06:09:46;;;;;;;2.05;1.50;;;;;;;18.22;90.71;102450.63;10416842;28;20043;-74
2022/07/11 06:14:47;;;;;;;6.35;1.92;;;;;;;18.26;91.13;102453.78;10417134;28;20156;-74
2022/07/11 06:19:48;;;;;;;2.38;1.60;;;;;;;18.26;91.22;102448.31;10399696;28;20034;-74
2022/07/11 06:24:49;;;;;;;1.80;1.70;;;;;;;18.47;89.85;102436.25;10417210;28;20039;-74
2022/07/11 06:29:49;;;;;;;1.83;1.70;;;;;;;18.61;89.66;102431.59;10417290;28;20478;-74
2022/07/11 06:34:50;;;;;;;1.55;1.10;;;;;;;18.61;89.90;102434.34;10416919;28;20111;-74
2022/07/11 06:39:50;;;;;;;4.25;1.80;;;;;;;18.57;90.16;102439.44;10416809;28;20040;-74
2022/07/11 06:44:51;;;;;;;2.28;1.90;;;;;;;18.76;89.81;102444.06;10417307;28;20037;-74
2022/07/11 06:49:51;;;;;;;8.35;1.80;;;;;;;18.92;88.11;102444.63;10416129;28;20049;-74
2022/07/11 06:54:52;;;;;;;4.32;1.95;;;;;;;19.05;88.40;102442.72;10416913;28;20037;-74
2022/07/11 06:59:53;;;;;;;2.25;1.92;;;;;;;19.16;88.19;102441.19;10417227;28;20041;-74
2022/07/11 07:04:54;;;;;;;1.08;0.98;;;;;;;19.16;88.56;102449.41;10403782;28;20068;-75
2022/07/11 07:09:55;;;;;;;1.65;1.55;;;;;;;19.00;91.18;102458.13;10415783;28;20025;-74
2022/07/11 07:15:01;;;;;;;1.27;1.20;;;;;;;19.07;89.69;102469.94;10418642;28;20045;-74
2022/07/11 07:20:03;;;;;;;1.77;1.55;;;;;;;19.31;88.73;102467.53;10398050;28;20037;-74
2022/07/11 07:25:05;;;;;;;1.27;1.27;;;;;;;19.17;89.95;102474.97;10398094;28;20490;-75
2022/07/11 07:30:07;;;;;;;1.10;1.10;;;;;;;19.26;90.08;102474.50;10415402;28;20457;-74
2022/07/11 07:35:08;;;;;;;2.05;1.67;;;;;;;19.19;90.28;102481.94;10397853;28;20122;-74
2022/07/11 07:40:08;;;;;;;2.83;1.77;;;;;;;19.11;92.10;102486.81;10397610;28;20389;-74
2022/07/11 07:45:09;;;;;;;1.55;1.42;;;;;;;19.03;92.32;102476.94;10415301;28;20473;-74
2022/07/11 07:50:09;;;;;;;2.33;1.67;;;;;;;18.92;92.46;102475.69;10396851;28;20053;-74
2022/07/11 07:55:10;;;;;;;4.18;2.10;;;;;;;19.23;90.68;102461.22;10398173;28;20052;-74
2022/07/11 08:05:30;;;;;;;2.80;1.35;;;;;;;19.91;88.47;102477.19;10401855;28;20117;-74
2022/07/11 08:10:31;;;;;;;1.35;1.35;;;;;;;19.94;87.65;102474.00;10413649;28;20134;-75
2022/07/11 08:15:31;;;;;;;6.93;1.42;;;;;;;20.01;87.87;102478.63;10403877;28;20033;-74
2022/07/11 08:20:32;;;;;;;1.95;1.17;;;;;;;20.15;87.28;102475.53;10422960;28;20484;-74
2022/07/11 08:25:32;;;;;;;1.63;1.52;;;;;;;20.26;87.06;102475.84;10403955;28;20450;-74
2022/07/11 08:30:33;;;;;;;1.33;1.25;;;;;;;20.61;85.92;102484.47;10421869;28;20099;-75
2022/07/11 08:35:33;;;;;;;1.25;1.15;;;;;;;20.58;85.74;102483.03;10403954;28;20045;-75
2022/07/11 08:40:34;;;;;;;2.33;1.38;;;;;;;20.84;85.11;102489.34;10421492;28;20048;-74
2022/07/11 08:45:34;;;;;;;4.80;1.42;;;;;;;20.98;84.66;102490.06;10421251;28;20389;-75
2022/07/11 08:50:35;;;;;;;5.45;1.60;;;;;;;21.05;84.43;102490.81;10419317;28;20477;-75
2022/07/11 08:55:35;;;;;;;0.70;0.70;;;;;;;21.35;83.77;102471.66;10421379;28;20037;-74
2022/07/11 09:00:36;;;;;;;0.87;0.87;;;;;;;22.72;81.16;102473.56;10403153;28;20038;-74
2022/07/11 09:05:36;;;;;;;1.25;1.08;;;;;;;23.08;79.12;102474.41;10418908;28;20328;-75
2022/07/11 09:10:38;;;;;;;0.95;0.95;;;;;;;23.33;78.14;102463.88;10403468;28;20076;-75
2022/07/11 09:15:40;;;;;;;2.17;1.38;;;;;;;23.72;76.03;102466.88;10420019;28;20480;-75
2022/07/11 09:26:22;;;;;;;1.20;1.20;;;;;;;24.46;73.70;102468.72;10418156;28;20033;-76
2022/07/11 09:31:22;;;;;;;3.67;1.20;;;;;;;24.96;69.38;102463.09;10404897;28;20034;-75
2022/07/11 09:36:33;;;;;;;6.95;1.25;;;;;;;27.26;64.97;102459.66;10403757;28;20038;-75
2022/07/11 09:41:34;;;;;;;2.30;1.13;;;;;;;26.43;65.09;102467.75;10418043;28;20037;-76
2022/07/11 09:46:35;;;;;;;0.60;0.60;;;;;;;25.51;61.37;102469.63;10401301;28;20033;-75
2022/07/11 09:51:36;;;;;;;1.02;1.02;;;;;;;25.98;66.74;102466.28;10417689;28;20057;-76
2022/07/11 09:56:41;;;;;;;0.70;0.70;;;;;;;26.40;65.02;102474.66;10418262;28;20127;-76
2022/07/11 10:01:41;;;;;;;1.65;0.95;;;;;;;25.11;69.07;102478.25;10401416;28;20422;-75
2022/07/11 10:06:42;;;;;;;2.13;1.15;;;;;;;26.10;61.55;102468.84;10417534;28;20041;-76
2022/07/11 10:11:42;;;;;;;1.33;1.23;;;;;;;27.64;57.88;102462.28;10418995;28;20041;-76
2022/07/11 10:16:45;;;;;;;5.25;1.33;;;;;;;28.41;56.59;102450.13;10417802;28;20073;-76
2022/07/11 10:21:53;;;;;;;0.90;0.90;;;;;;;28.82;52.31;102452.81;10417270;28;20037;-76
2022/07/11 10:27:02;;;;;;;0.98;0.90;;;;;;;29.68;54.50;102456.38;10403349;28;20091;-76
2022/07/11 10:32:10;;;;;;;0.88;0.88;;;;;;;30.07;51.92;102444.34;10385663;28;20041;-77
2022/07/11 10:37:11;;;;;;;1.50;1.40;;;;;;;29.61;46.63;102450.25;10418604;28;20071;-77
2022/07/11 10:42:19;;;;;;;1.25;1.17;;;;;;;29.47;49.00;102449.22;10417359;28;20124;-76
2022/07/11 10:47:42;;;;;;;1.08;1.08;;;;;;;29.41;47.50;102453.97;10399031;28;20446;-76
2022/07/11 10:52:42;;;;;;;0.90;0.90;;;;;;;28.97;51.57;102446.34;10420217;28;20370;-76
2022/07/11 10:58:13;;;;;;;1.00;1.00;;;;;;;28.43;51.40;102445.09;10415518;28;20072;-77
2022/07/11 11:03:13;;;;;;;2.17;1.00;;;;;;;28.37;51.49;102445.38;10416655;28;20041;-76
2022/07/11 11:08:35;;;;;;;1.13;1.05;;;;;;;28.38;51.73;102447.84;10414612;28;20068;-76
2022/07/11 11:13:36;;;;;;;1.00;1.00;;;;;;;29.84;51.70;102443.13;10415670;28;20457;-76
2022/07/11 11:18:36;;;;;;;2.95;1.30;;;;;;;30.13;51.96;102444.00;10414525;28;20069;-77
2022/07/11 11:23:40;;;;;;;2.22;1.77;;;;;;;30.39;50.52;102429.81;10414891;28;20326;-77
2022/07/11 11:29:00;;;;;;;1.88;1.73;;;;;;;30.62;50.20;102435.72;10414876;28;20021;-76
2022/07/11 11:34:02;;;;;;;3.95;1.75;;;;;;;30.22;51.90;102424.69;10415752;28;20083;-76
2022/07/11 11:39:02;;;;;;;2.30;2.10;;;;;;;30.42;45.26;102420.00;10414209;28;20039;-76
2022/07/11 11:44:03;;;;;;;1.70;1.60;;;;;;;29.31;46.00;102426.97;10415735;28;20043;-76
2022/07/11 11:49:04;;;;;;;1.20;1.13;;;;;;;29.36;42.81;102429.75;10419584;28;20045;-75
2022/07/11 11:54:27;;;;;;;1.92;1.40;;;;;;;29.82;44.81;102420.25;10424039;28;20084;-76
2022/07/11 11:59:29;;;;;;;1.45;1.35;;;;;;;30.28;46.49;102429.09;10405413;28;20030;-76
2022/07/11 12:04:33;;;;;;;2.28;1.85;;;;;;;31.12;46.44;102422.28;10422949;28;20485;-76
2022/07/11 12:09:46;;;;;;;1.30;1.30;;;;;;;30.93;44.57;102423.09;10405149;28;20087;-77
2022/07/11 12:14:48;;;;;;;1.33;1.27;;;;;;;30.61;43.30;102425.69;10406892;28;20477;-76
2022/07/11 12:19:48;;;;;;;0.90;0.90;;;;;;;30.52;45.27;102417.94;10406363;28;20034;-76
2022/07/11 12:24:50;;;;;;;1.10;1.10;;;;;;;29.72;45.57;102425.91;10404337;28;20028;-76
2022/07/11 12:29:51;;;;;;;1.35;1.33;;;;;;;29.39;45.64;102429.16;10420766;28;20270;-77
2022/07/11 12:34:52;;;;;;;1.75;1.25;;;;;;;29.62;46.61;102415.66;10421731;28;20470;-76
2022/07/11 12:39:54;;;;;;;1.38;1.08;;;;;;;30.43;46.48;102411.31;10421567;28;20053;-76
2022/07/11 12:45:22;;;;;;;2.50;1.10;;;;;;;29.38;46.46;102405.16;10419251;28;20061;-76
2022/07/11 12:50:26;;;;;;;0.60;0.60;;;;;;;29.82;48.24;102395.94;10420284;28;20053;-76
2022/07/11 12:55:30;;;;;;;1.17;1.17;;;;;;;30.91;47.88;102388.97;10405449;28;20466;-77
2022/07/11 13:00:32;;;;;;;0.95;0.90;;;;;;;31.35;45.57;102387.00;10422519;28;20049;-76
2022/07/11 13:05:47;;;;;;;1.27;1.13;;;;;;;31.49;43.79;102388.75;10404728;28;20235;-76
2022/07/11 13:10:50;;;;;;;1.60;1.50;;;;;;;30.68;47.45;102387.84;10420485;28;20034;-76
2022/07/11 13:15:51;;;;;;;1.42;1.25;;;;;;;29.68;44.75;102388.53;10419784;28;20477;-76
2022/07/11 13:20:51;;;;;;;1.60;1.08;;;;;;;29.25;47.06;102380.69;10403001;28;20040;-75
2022/07/11 13:25:51;;;;;;;1.45;1.33;;;;;;;29.87;47.76;102381.94;10419937;28;20041;-76
2022/07/11 13:30:52;;;;;;;2.67;1.25;;;;;;;29.76;46.40;102383.13;10402081;28;20053;-76
2022/07/11 13:35:52;;;;;;;1.30;1.30;;;;;;;29.49;46.83;102386.41;10419993;28;20045;-76
2022/07/11 13:40:53;;;;;;;1.15;1.08;;;;;;;29.91;47.31;102384.97;10419934;28;20033;-76
2022/07/11 13:45:53;;;;;;;2.95;1.42;;;;;;;30.17;48.04;102377.19;10401390;28;20048;-76
2022/07/11 13:50:55;;;;;;;2.07;1.60;;;;;;;30.57;47.83;102381.53;10418810;28;20079;-76
2022/07/11 13:55:56;;;;;;;1.58;1.35;;;;;;;30.79;48.64;102377.38;10401816;28;20289;-76
2022/07/11 14:00:57;;;;;;;1.23;1.13;;;;;;;31.16;48.74;102376.59;10418106;28;20033;-76
2022/07/11 14:05:58;;;;;;;2.25;1.10;;;;;;;31.26;49.08;102376.44;10417658;28;20255;-76
2022/07/11 14:10:58;;;;;;;1.60;1.20;;;;;;;31.36;50.27;102380.25;10417712;28;20030;-76
2022/07/11 14:15:58;;;;;;;1.50;1.10;;;;;;;31.20;49.28;102383.25;10417504;28;20033;-76
2022/07/11 14:21:00;;;;;;;1.45;1.13;;;;;;;31.27;49.45;102383.72;10401538;28;20738;-76
2022/07/11 14:26:01;;;;;;;1.20;1.20;;;;;;;30.77;48.80;102379.66;10416543;28;20094;-76
2022/07/11 14:31:01;;;;;;;1.90;1.67;;;;;;;30.16;50.09;102372.72;10399775;28;20053;-76
2022/07/11 14:36:02;;;;;;;1.15;1.15;;;;;;;30.13;51.17;102374.16;10416524;28;20026;-76
2022/07/11 14:41:02;;;;;;;1.30;1.30;;;;;;;30.06;51.12;102373.66;10417063;28;20041;-76
2022/07/11 14:46:02;;;;;;;1.67;1.48;;;;;;;29.86;50.94;102369.09;10383007;28;20393;-76
2022/07/11 14:51:03;;;;;;;1.90;1.70;;;;;;;29.64;51.85;102372.38;10415545;28;20485;-76
2022/07/11 14:56:04;;;;;;;1.70;1.60;;;;;;;29.36;51.37;102373.94;10417090;28;20345;-76
2022/07/11 15:01:05;;;;;;;1.10;1.10;;;;;;;28.95;52.90;102374.13;10416523;28;20033;-76
2022/07/11 15:06:07;;;;;;;5.80;1.63;;;;;;;28.88;52.14;102379.19;10418037;28;20113;-76
2022/07/11 15:16:28;;;;;;;1.58;1.48;;;;;;;28.60;52.70;102385.41;10401494;28;20140;-76
2022/07/11 15:21:29;;;;;;;3.63;1.40;;;;;;;28.53;53.43;102366.22;10415705;28;20373;-75
2022/07/11 15:26:30;;;;;;;3.20;1.75;;;;;;;28.45;53.73;102373.19;10399355;28;20125;-76
2022/07/11 15:31:30;;;;;;;1.50;1.45;;;;;;;28.44;53.62;102367.91;10416643;28;20045;-76
2022/07/11 15:36:30;;;;;;;1.83;1.73;;;;;;;28.29;54.41;102365.94;10414790;28;20132;-76
2022/07/11 15:41:34;;;;;;;6.13;1.77;;;;;;;28.14;53.87;102366.81;10416427;28;20043;-76
2022/07/11 15:46:34;;;;;;;1.83;1.48;;;;;;;28.03;54.28;102359.59;10416344;28;20505;-76
2022/07/11 15:51:35;;;;;;;1.73;1.63;;;;;;;27.81;55.23;102351.53;10415659;28;20065;-76
2022/07/11 15:56:35;;;;;;;2.20;1.73;;;;;;;27.66;55.25;102345.94;10397553;28;20087;-76
2022/07/11 16:01:38;;;;;;;1.77;1.67;;;;;;;27.52;55.78;102345.66;10413561;28;20569;-75
2022/07/11 16:06:38;;;;;;;1.27;1.17;;;;;;;27.47;55.90;102345.63;10414819;28;20034;-76
2022/07/11 16:11:39;;;;;;;1.98;1.52;;;;;;;27.38;56.29;102337.03;10397075;28;20052;-76
2022/07/11 16:16:39;;;;;;;1.60;1.50;;;;;;;27.17;56.56;102338.91;10414739;28;20042;-76
2022/07/11 16:21:40;;;;;;;2.28;1.38;;;;;;;26.67;57.03;102332.06;10397638;28;20324;-76
2022/07/11 16:26:41;;;;;;;2.45;2.25;;;;;;;26.36;57.23;102329.09;10413962;28;20038;-75
2022/07/11 16:31:41;;;;;;;1.88;1.77;;;;;;;25.90;57.12;102331.56;10413930;28;20047;-75
2022/07/11 16:36:43;;;;;;;11.60;2.05;;;;;;;25.29;57.17;102336.56;10420766;28;20033;-76
2022/07/11 16:47:02;;;;;;;2.30;2.13;;;;;;;24.44;58.52;102338.00;10421322;28;20083;-75
2022/07/11 16:52:02;;;;;;;2.30;2.13;;;;;;;24.30;57.76;102335.56;10402863;28;20045;-75
2022/07/11 16:57:04;;;;;;;2.22;2.03;;;;;;;24.18;57.81;102337.59;10386866;28;20029;-75
2022/07/11 17:02:07;;;;;;;5.03;2.25;;;;;;;24.08;57.92;102332.75;10421523;28;20044;-75
2022/07/11 17:07:07;;;;;;;2.85;2.03;;;;;;;23.96;58.84;102332.00;10402917;28;20441;-75
2022/07/11 17:12:08;;;;;;;2.15;1.98;;;;;;;23.89;59.47;102334.94;10420974;28;20037;-75
2022/07/11 17:17:08;;;;;;;2.33;2.13;;;;;;;23.88;58.99;102340.75;10403359;28;20095;-75
2022/07/11 17:22:08;;;;;;;2.72;2.53;;;;;;;23.81;60.40;102332.59;10420810;28;20037;-75
2022/07/11 17:27:10;;;;;;;5.63;2.75;;;;;;;23.92;60.46;102332.78;10418886;28;20057;-75
2022/07/11 17:32:10;;;;;;;2.08;1.98;;;;;;;23.90;61.80;102331.09;10420728;28;20033;-75
2022/07/11 17:37:11;;;;;;;2.42;2.30;;;;;;;23.92;62.23;102318.94;10420199;28;20033;-75
2022/07/11 17:42:12;;;;;;;1.60;1.50;;;;;;;23.96;61.53;102331.16;10419292;28;20038;-75
2022/07/11 17:47:12;;;;;;;2.13;2.03;;;;;;;23.89;61.16;102326.63;10419902;28;20048;-75
2022/07/11 17:52:13;;;;;;;3.33;2.80;;;;;;;23.76;61.89;102317.84;10404098;28;20053;-75
2022/07/11 17:57:13;;;;;;;2.42;2.15;;;;;;;23.72;63.01;102324.97;10420121;28;20060;-75
2022/07/11 18:02:15;;;;;;;2.55;2.35;;;;;;;23.64;62.57;102323.41;10401516;28;20044;-75
2022/07/11 18:07:15;;;;;;;2.53;2.33;;;;;;;23.58;63.97;102316.13;10419408;28;20029;-75
2022/07/11 18:12:17;;;;;;;8.45;2.78;;;;;;;23.40;65.31;102325.50;10418130;28;20034;-75
2022/07/11 18:17:18;;;;;;;2.08;1.98;;;;;;;23.24;66.40;102327.16;10383982;28;20064;-75
2022/07/11 18:22:18;;;;;;;2.88;2.67;;;;;;;23.16;65.94;102322.00;10399385;28;20083;-75
2022/07/11 18:27:19;;;;;;;4.50;2.65;;;;;;;23.06;67.34;102321.81;10418624;28;20091;-75
2022/07/11 18:32:20;;;;;;;3.20;2.50;;;;;;;22.87;69.16;102316.44;10417321;28;20041;-71
2022/07/11 18:37:21;;;;;;;1.52;1.42;;;;;;;22.77;69.46;102324.53;10383292;28;20468;-71
2022/07/11 18:42:21;;;;;;;2.65;2.03;;;;;;;22.75;68.20;102324.78;10417256;28;20037;-70
2022/07/11 18:47:21;;;;;;;3.03;1.80;;;;;;;22.60;68.25;102312.59;10415579;28;20141;-70
2022/07/11 18:52:23;;;;;;;2.30;2.10;;;;;;;22.40;71.19;102319.34;10416306;28;20452;-70
2022/07/11 18:57:23;;;;;;;1.83;1.67;;;;;;;22.35;69.16;102329.44;10413837;28;20038;-76
2022/07/11 19:02:24;;;;;;;1.80;1.60;;;;;;;22.25;70.54;102341.09;10416958;28;20044;-75
2022/07/11 19:07:25;;;;;;;2.80;1.65;;;;;;;22.21;70.56;102337.13;10415043;28;20380;-75
2022/07/11 19:12:26;;;;;;;2.07;1.90;;;;;;;22.09;69.39;102339.00;10415298;28;20422;-75
2022/07/11 19:17:26;;;;;;;9.00;2.65;;;;;;;21.88;69.90;102341.25;10415877;28;20289;-75
2022/07/11 19:22:29;;;;;;;6.00;1.77;;;;;;;21.69;69.95;102331.41;10415711;28;20033;-75
2022/07/11 19:27:30;;;;;;;2.17;1.98;;;;;;;21.50;70.18;102328.72;10416125;28;20497;-75
2022/07/11 19:32:31;;;;;;;3.17;2.63;;;;;;;21.38;70.12;102336.16;10430673;28;20462;-69
2022/07/11 19:37:31;;;;;;;3.83;2.00;;;;;;;21.27;70.13;102339.66;10413665;28;20125;-68
2022/07/11 19:42:32;;;;;;;2.22;2.13;;;;;;;21.12;72.43;102338.19;10430061;28;20063;-68
2022/07/11 19:47:32;;;;;;;6.15;2.22;;;;;;;21.02;71.23;102348.06;10415579;28;20033;-68
2022/07/11 19:52:33;;;;;;;3.47;2.28;;;;;;;20.85;71.03;102354.19;10414768;28;20045;-69
2022/07/11 19:57:33;;;;;;;2.10;1.80;;;;;;;20.67;74.47;102363.28;10415791;28;20041;-69
2022/07/11 20:02:34;;;;;;;2.42;2.00;;;;;;;20.51;76.14;102371.28;10380499;28;20084;-68
2022/07/11 20:07:34;;;;;;;7.28;2.15;;;;;;;20.34;74.83;102382.06;10397385;28;20034;-68
2022/07/11 20:12:34;;;;;;;2.17;1.85;;;;;;;20.20;73.95;102387.69;10421608;28;20099;-69
2022/07/11 20:17:35;;;;;;;2.45;2.25;;;;;;;20.14;74.91;102401.50;10422490;28;20040;-68
2022/07/11 20:22:35;;;;;;;2.60;2.15;;;;;;;20.06;74.75;102405.34;10420224;28;20478;-69
2022/07/11 20:27:36;;;;;;;2.33;2.10;;;;;;;19.97;76.94;102406.69;10421919;28;20038;-68
2022/07/11 20:32:37;;;;;;;4.05;1.67;;;;;;;19.81;79.16;102415.50;10421685;28;20029;-68
2022/07/11 20:37:37;;;;;;;2.22;2.08;;;;;;;19.64;82.43;102412.44;10420187;28;20052;-68
2022/07/11 20:42:38;;;;;;;2.03;1.92;;;;;;;19.48;84.79;102416.53;10420444;28;20120;-69
2022/07/11 20:47:38;;;;;;;2.40;2.20;;;;;;;19.29;87.25;102421.88;10421129;28;20038;-68
2022/07/11 20:52:39;;;;;;;2.22;2.03;;;;;;;19.18;87.35;102422.59;10423353;28;20077;-68
2022/07/11 20:57:39;;;;;;;1.90;1.80;;;;;;;19.10;86.00;102413.75;10420775;28;20037;-68
2022/07/11 21:02:39;;;;;;;2.25;2.03;;;;;;;19.01;85.33;102424.13;10420014;28;20079;-68
2022/07/11 21:07:40;;;;;;;3.47;2.22;;;;;;;18.93;85.05;102416.16;10419722;28;20412;-69
2022/07/11 21:12:40;;;;;;;3.00;2.25;;;;;;;18.86;88.65;102415.31;10418922;28;20037;-69
2022/07/11 21:17:40;;;;;;;3.17;2.58;;;;;;;18.81;88.98;102418.72;10419976;28;20095;-68
2022/07/11 21:22:41;;;;;;;4.47;3.05;;;;;;;18.76;88.50;102416.63;10418697;28;20088;-68
2022/07/11 21:27:41;;;;;;;3.15;2.83;;;;;;;18.72;87.50;102425.44;10418550;28;20033;-69
2022/07/11 21:32:42;;;;;;;3.03;2.78;;;;;;;18.66;86.07;102437.28;10419349;28;20072;-69
2022/07/11 21:37:42;;;;;;;3.25;3.03;;;;;;;18.58;87.39;102443.84;10420009;28;20045;-68
2022/07/11 21:42:44;;;;;;;2.65;2.45;;;;;;;18.44;88.08;102423.81;10418945;28;20451;-68
2022/07/11 21:47:44;;;;;;;3.97;3.28;;;;;;;18.25;94.58;102417.31;10419019;28;20037;-68
2022/07/11 21:52:45;;;;;;;2.90;2.70;;;;;;;18.24;93.20;102437.53;10419045;28;20045;-67
2022/07/11 21:57:45;;;;;;;2.92;2.72;;;;;;;18.09;96.97;102421.31;10400862;28;20069;-68
2022/07/11 22:02:45;;;;;;;3.03;2.20;;;;;;;18.03;98.12;102415.81;10417897;28;20099;-69
2022/07/11 22:07:46;;;;;;;3.08;2.78;;;;;;;17.97;96.40;102409.28;10418173;28;20492;-67
2022/07/11 22:12:49;;;;;;;4.65;4.10;;;;;;;17.87;100.00;102409.69;10417216;28;20029;-68
2022/07/11 22:17:49;;;;;;;4.45;3.70;;;;;;;17.82;98.78;102404.00;10418068;28;20034;-68
2022/07/11 22:22:50;;;;;;;2.65;2.50;;;;;;;17.74;100.00;102415.13;10417311;28;20528;-68
2022/07/11 22:27:50;;;;;;;4.70;2.78;;;;;;;17.71;95.25;102418.28;10416843;28;20076;-68
2022/07/11 22:32:51;;;;;;;2.38;2.28;;;;;;;17.64;93.03;102429.22;10415768;28;20068;-68
2022/07/11 22:37:52;;;;;;;2.92;2.72;;;;;;;17.58;91.69;102423.72;10417677;28;20061;-69
2022/07/11 22:43:10;;;;;;;4.00;3.65;;;;;;;17.51;90.28;102428.34;10416903;28;20033;-70
2022/07/11 22:48:10;;;;;;;2.65;2.53;;;;;;;17.46;90.18;102428.13;10415959;28;20457;-69
2022/07/11 22:53:11;;;;;;;2.97;2.78;;;;;;;17.42;91.66;102416.72;10415775;28;20129;-68
2022/07/11 22:58:11;;;;;;;4.28;3.97;;;;;;;17.38;91.51;102418.19;10416453;28;20450;-68
2022/07/11 23:03:12;;;;;;;6.78;3.40;;;;;;;17.31;91.07;102415.44;10416990;28;20529;-69
2022/07/11 23:08:12;;;;;;;5.28;3.92;;;;;;;17.18;91.82;102404.44;10415975;28;20041;-69
2022/07/11 23:13:13;;;;;;;5.75;3.80;;;;;;;17.19;90.98;102431.59;10415118;28;20112;-69
2022/07/11 23:18:13;;;;;;;3.80;3.47;;;;;;;17.08;90.33;102434.94;10415721;28;20045;-68
2022/07/11 23:23:13;;;;;;;5.18;4.22;;;;;;;17.00;92.25;102426.88;10416047;28;20405;-68
2022/07/11 23:28:14;;;;;;;4.03;3.30;;;;;;;16.94;91.85;102412.13;10414247;28;20034;-68
2022/07/11 23:33:14;;;;;;;4.43;4.00;;;;;;;16.85;92.00;102399.66;10415170;28;20044;-68
2022/07/11 23:38:15;;;;;;;3.90;3.45;;;;;;;16.76;90.59;102402.78;10415766;28;20042;-68
2022/07/11 23:43:15;;;;;;;5.25;4.75;;;;;;;16.66;90.26;102397.63;10417638;28;20037;-69